sensor_id;sensor_type;location;lat;lon;timestamp;temperature;humidity
22787;DHT22;63134;52.020;4.714;2024-01-15T00:01:27;4.60;99.90
22787;DHT22;63134;52.020;4.714;2024-01-15T00:04:13;4.40;99.10
22787;DHT22;63134;52.020;4.714;2024-01-15T00:06:59;4.20;98.60
22787;DHT22;63134;52.020;4.714;2024-01-15T00:09:44;4.00;98.80
22787;DHT22;63134;52.020;4.714;2024-01-15T00:12:29;3.90;99.30
22787;DHT22;63134;52.020;4.714;2024-01-15T00:15:15;3.80;99.60
22787;DHT22;63134;52.020;4.714;2024-01-15T00:18:01;3.70;99.80
22787;DHT22;63134;52.020;4.714;2024-01-15T00:20:46;3.70;99.90
22787;DHT22;63134;52.020;4.714;2024-01-15T00:23:32;3.70;99.90
22787;DHT22;63134;52.020;4.714;2024-01-15T00:26:18;3.60;99.90
22787;DHT22;63134;52.020;4.714;2024-01-15T00:29:03;3.60;99.90
22787;DHT22;63134;52.020;4.714;2024-01-15T00:31:49;3.70;99.90
22787;DHT22;63134;52.020;4.714;2024-01-15T00:34:35;3.60;99.90
22787;DHT22;63134;52.020;4.714;2024-01-15T00:37:20;3.60;99.90
22787;DHT22;63134;52.020;4.714;2024-01-15T00:40:06;3.50;99.90
22787;DHT22;63134;52.020;4.714;2024-01-15T00:42:53;3.50;99.90
22787;DHT22;63134;52.020;4.714;2024-01-15T00:45:38;3.50;99.90
22787;DHT22;63134;52.020;4.714;2024-01-15T00:48:24;3.50;99.90
22787;DHT22;63134;52.020;4.714;2024-01-15T00:51:09;3.50;99.90
22787;DHT22;63134;52.020;4.714;2024-01-15T00:53:55;3.50;99.90
22787;DHT22;63134;52.020;4.714;2024-01-15T00:56:40;3.60;99.90
22787;DHT22;63134;52.020;4.714;2024-01-15T00:59:26;3.60;99.90
22787;DHT22;63134;52.020;4.714;2024-01-15T01:02:11;3.70;99.90
22787;DHT22;63134;52.020;4.714;2024-01-15T01:04:57;3.70;99.90
22787;DHT22;63134;52.020;4.714;2024-01-15T01:07:42;3.60;99.60
22787;DHT22;63134;52.020;4.714;2024-01-15T01:10:28;3.60;99.30
22787;DHT22;63134;52.020;4.714;2024-01-15T01:13:14;3.60;99.90
22787;DHT22;63134;52.020;4.714;2024-01-15T01:15:59;3.60;99.90
22787;DHT22;63134;52.020;4.714;2024-01-15T01:18:45;3.60;99.90
22787;DHT22;63134;52.020;4.714;2024-01-15T01:21:31;3.60;99.90
22787;DHT22;63134;52.020;4.714;2024-01-15T01:24:16;3.60;99.90
22787;DHT22;63134;52.020;4.714;2024-01-15T01:27:02;3.60;99.90
22787;DHT22;63134;52.020;4.714;2024-01-15T01:29:47;3.70;99.90
22787;DHT22;63134;52.020;4.714;2024-01-15T01:32:33;3.70;99.90
22787;DHT22;63134;52.020;4.714;2024-01-15T01:35:18;3.80;99.90
22787;DHT22;63134;52.020;4.714;2024-01-15T01:38:04;3.90;99.90
22787;DHT22;63134;52.020;4.714;2024-01-15T01:40:49;3.90;99.90
22787;DHT22;63134;52.020;4.714;2024-01-15T01:43:35;4.00;99.40
22787;DHT22;63134;52.020;4.714;2024-01-15T01:46:20;4.00;99.40
22787;DHT22;63134;52.020;4.714;2024-01-15T01:49:07;4.00;99.30
22787;DHT22;63134;52.020;4.714;2024-01-15T01:51:59;4.00;99.40
22787;DHT22;63134;52.020;4.714;2024-01-15T01:54:45;4.00;99.10
22787;DHT22;63134;52.020;4.714;2024-01-15T01:57:31;3.90;99.00
22787;DHT22;63134;52.020;4.714;2024-01-15T02:00:19;3.80;99.20
22787;DHT22;63134;52.020;4.714;2024-01-15T02:03:04;3.80;99.30
22787;DHT22;63134;52.020;4.714;2024-01-15T02:05:50;3.80;99.20
22787;DHT22;63134;52.020;4.714;2024-01-15T02:08:36;3.70;99.50
22787;DHT22;63134;52.020;4.714;2024-01-15T02:11:22;3.70;99.50
22787;DHT22;63134;52.020;4.714;2024-01-15T02:14:09;3.70;99.40
22787;DHT22;63134;52.020;4.714;2024-01-15T02:16:55;3.70;99.70
22787;DHT22;63134;52.020;4.714;2024-01-15T02:19:40;3.60;99.80
22787;DHT22;63134;52.020;4.714;2024-01-15T02:22:26;3.60;99.90
22787;DHT22;63134;52.020;4.714;2024-01-15T02:25:12;3.60;99.90
22787;DHT22;63134;52.020;4.714;2024-01-15T02:27:57;3.60;99.90
22787;DHT22;63134;52.020;4.714;2024-01-15T02:30:43;3.60;99.90
22787;DHT22;63134;52.020;4.714;2024-01-15T02:33:29;3.60;99.90
22787;DHT22;63134;52.020;4.714;2024-01-15T02:36:16;3.60;99.90
22787;DHT22;63134;52.020;4.714;2024-01-15T02:39:02;3.60;99.90
22787;DHT22;63134;52.020;4.714;2024-01-15T02:41:47;3.60;99.90
22787;DHT22;63134;52.020;4.714;2024-01-15T02:44:33;3.60;99.80
22787;DHT22;63134;52.020;4.714;2024-01-15T02:47:18;3.60;99.90
22787;DHT22;63134;52.020;4.714;2024-01-15T02:50:04;3.60;99.90
22787;DHT22;63134;52.020;4.714;2024-01-15T02:52:50;3.60;99.90
22787;DHT22;63134;52.020;4.714;2024-01-15T02:55:36;3.70;99.90
22787;DHT22;63134;52.020;4.714;2024-01-15T02:58:21;3.70;99.80
22787;DHT22;63134;52.020;4.714;2024-01-15T03:01:07;3.70;99.70
22787;DHT22;63134;52.020;4.714;2024-01-15T03:03:53;3.70;99.60
22787;DHT22;63134;52.020;4.714;2024-01-15T03:06:40;3.80;99.70
22787;DHT22;63134;52.020;4.714;2024-01-15T03:09:26;3.80;99.50
22787;DHT22;63134;52.020;4.714;2024-01-15T03:12:11;3.80;99.20
22787;DHT22;63134;52.020;4.714;2024-01-15T03:14:57;3.80;99.40
22787;DHT22;63134;52.020;4.714;2024-01-15T03:17:42;3.80;99.40
22787;DHT22;63134;52.020;4.714;2024-01-15T03:20:28;3.80;99.40
22787;DHT22;63134;52.020;4.714;2024-01-15T03:23:14;3.80;99.40
22787;DHT22;63134;52.020;4.714;2024-01-15T03:25:59;3.70;99.40
22787;DHT22;63134;52.020;4.714;2024-01-15T03:28:45;3.80;99.90
22787;DHT22;63134;52.020;4.714;2024-01-15T03:31:31;3.90;99.90
22787;DHT22;63134;52.020;4.714;2024-01-15T03:34:16;3.90;99.50
22787;DHT22;63134;52.020;4.714;2024-01-15T03:37:02;4.00;99.90
22787;DHT22;63134;52.020;4.714;2024-01-15T03:39:49;4.20;99.90
22787;DHT22;63134;52.020;4.714;2024-01-15T03:42:34;4.40;99.60
22787;DHT22;63134;52.020;4.714;2024-01-15T03:45:20;4.40;99.30
22787;DHT22;63134;52.020;4.714;2024-01-15T03:48:05;4.40;99.10
22787;DHT22;63134;52.020;4.714;2024-01-15T03:50:51;4.30;98.90
22787;DHT22;63134;52.020;4.714;2024-01-15T03:53:38;4.30;99.10
22787;DHT22;63134;52.020;4.714;2024-01-15T03:56:23;4.30;99.10
22787;DHT22;63134;52.020;4.714;2024-01-15T03:59:09;4.20;98.90
22787;DHT22;63134;52.020;4.714;2024-01-15T04:01:55;4.10;98.60
22787;DHT22;63134;52.020;4.714;2024-01-15T04:04:43;4.10;98.90
22787;DHT22;63134;52.020;4.714;2024-01-15T04:07:29;4.10;99.40
22787;DHT22;63134;52.020;4.714;2024-01-15T04:10:14;4.10;99.50
22787;DHT22;63134;52.020;4.714;2024-01-15T04:13:00;4.10;99.80
22787;DHT22;63134;52.020;4.714;2024-01-15T04:15:47;4.20;99.90
22787;DHT22;63134;52.020;4.714;2024-01-15T04:18:32;4.20;99.70
22787;DHT22;63134;52.020;4.714;2024-01-15T04:21:18;4.20;99.70
22787;DHT22;63134;52.020;4.714;2024-01-15T04:24:04;4.10;99.70
22787;DHT22;63134;52.020;4.714;2024-01-15T04:26:51;4.20;99.90
22787;DHT22;63134;52.020;4.714;2024-01-15T04:29:39;4.20;99.80
22787;DHT22;63134;52.020;4.714;2024-01-15T04:32:26;4.10;99.70
22787;DHT22;63134;52.020;4.714;2024-01-15T04:35:11;4.10;99.80
22787;DHT22;63134;52.020;4.714;2024-01-15T04:37:57;4.10;99.90
22787;DHT22;63134;52.020;4.714;2024-01-15T04:40:43;4.10;99.90
22787;DHT22;63134;52.020;4.714;2024-01-15T04:43:28;4.10;99.90
22787;DHT22;63134;52.020;4.714;2024-01-15T04:46:14;4.10;99.90
22787;DHT22;63134;52.020;4.714;2024-01-15T04:49:00;4.20;99.90
22787;DHT22;63134;52.020;4.714;2024-01-15T04:51:46;4.20;99.90
22787;DHT22;63134;52.020;4.714;2024-01-15T04:54:32;4.20;99.80
22787;DHT22;63134;52.020;4.714;2024-01-15T04:57:18;4.20;99.70
22787;DHT22;63134;52.020;4.714;2024-01-15T05:00:03;4.20;99.20
22787;DHT22;63134;52.020;4.714;2024-01-15T05:02:50;4.00;98.30
22787;DHT22;63134;52.020;4.714;2024-01-15T05:05:35;3.80;98.30
22787;DHT22;63134;52.020;4.714;2024-01-15T05:08:22;3.80;98.80
22787;DHT22;63134;52.020;4.714;2024-01-15T05:11:07;3.70;99.00
22787;DHT22;63134;52.020;4.714;2024-01-15T05:13:52;3.60;99.20
22787;DHT22;63134;52.020;4.714;2024-01-15T05:16:39;3.50;99.30
22787;DHT22;63134;52.020;4.714;2024-01-15T05:19:25;3.40;99.30
22787;DHT22;63134;52.020;4.714;2024-01-15T05:22:11;3.30;99.40
22787;DHT22;63134;52.020;4.714;2024-01-15T05:24:56;3.20;99.60
22787;DHT22;63134;52.020;4.714;2024-01-15T05:27:42;3.20;99.90
22787;DHT22;63134;52.020;4.714;2024-01-15T05:30:28;3.30;99.90
22787;DHT22;63134;52.020;4.714;2024-01-15T05:33:17;3.30;99.90
22787;DHT22;63134;52.020;4.714;2024-01-15T05:36:02;3.40;99.90
22787;DHT22;63134;52.020;4.714;2024-01-15T05:38:48;3.40;99.90
22787;DHT22;63134;52.020;4.714;2024-01-15T05:41:35;3.40;99.90
22787;DHT22;63134;52.020;4.714;2024-01-15T05:44:20;3.40;99.90
22787;DHT22;63134;52.020;4.714;2024-01-15T05:47:06;3.30;99.90
22787;DHT22;63134;52.020;4.714;2024-01-15T05:49:51;3.30;99.90
22787;DHT22;63134;52.020;4.714;2024-01-15T05:52:37;3.30;99.90
22787;DHT22;63134;52.020;4.714;2024-01-15T05:55:23;3.30;99.90
22787;DHT22;63134;52.020;4.714;2024-01-15T05:58:08;3.30;99.90
22787;DHT22;63134;52.020;4.714;2024-01-15T06:00:54;3.20;99.90
22787;DHT22;63134;52.020;4.714;2024-01-15T06:03:42;3.20;99.90
22787;DHT22;63134;52.020;4.714;2024-01-15T06:06:28;3.10;99.90
22787;DHT22;63134;52.020;4.714;2024-01-15T06:09:13;3.20;99.90
22787;DHT22;63134;52.020;4.714;2024-01-15T06:11:59;3.10;99.90
22787;DHT22;63134;52.020;4.714;2024-01-15T06:14:45;3.10;99.90
22787;DHT22;63134;52.020;4.714;2024-01-15T06:17:30;3.10;99.90
22787;DHT22;63134;52.020;4.714;2024-01-15T06:20:16;3.00;99.90
22787;DHT22;63134;52.020;4.714;2024-01-15T06:23:02;3.00;99.90
22787;DHT22;63134;52.020;4.714;2024-01-15T06:25:47;3.10;99.90
22787;DHT22;63134;52.020;4.714;2024-01-15T06:28:33;3.20;99.90
22787;DHT22;63134;52.020;4.714;2024-01-15T06:31:18;3.20;99.90
22787;DHT22;63134;52.020;4.714;2024-01-15T06:34:04;3.20;99.90
22787;DHT22;63134;52.020;4.714;2024-01-15T06:36:50;3.20;99.90
22787;DHT22;63134;52.020;4.714;2024-01-15T06:39:35;3.30;99.90
22787;DHT22;63134;52.020;4.714;2024-01-15T06:42:21;3.50;99.90
22787;DHT22;63134;52.020;4.714;2024-01-15T06:45:08;3.60;99.90
22787;DHT22;63134;52.020;4.714;2024-01-15T06:47:56;3.60;99.90
22787;DHT22;63134;52.020;4.714;2024-01-15T06:50:45;3.50;99.90
22787;DHT22;63134;52.020;4.714;2024-01-15T06:53:31;3.30;99.90
22787;DHT22;63134;52.020;4.714;2024-01-15T06:56:16;3.20;99.90
22787;DHT22;63134;52.020;4.714;2024-01-15T06:59:02;3.20;99.90
22787;DHT22;63134;52.020;4.714;2024-01-15T07:01:48;3.20;99.90
22787;DHT22;63134;52.020;4.714;2024-01-15T07:04:33;3.30;99.90
22787;DHT22;63134;52.020;4.714;2024-01-15T07:07:19;3.30;99.90
22787;DHT22;63134;52.020;4.714;2024-01-15T07:10:05;3.20;99.90
22787;DHT22;63134;52.020;4.714;2024-01-15T07:12:51;3.10;99.50
22787;DHT22;63134;52.020;4.714;2024-01-15T07:15:36;3.00;99.60
22787;DHT22;63134;52.020;4.714;2024-01-15T07:18:22;2.80;99.80
22787;DHT22;63134;52.020;4.714;2024-01-15T07:21:09;2.70;99.90
22787;DHT22;63134;52.020;4.714;2024-01-15T07:23:54;2.70;99.90
22787;DHT22;63134;52.020;4.714;2024-01-15T07:26:40;2.60;99.90
22787;DHT22;63134;52.020;4.714;2024-01-15T07:29:25;2.60;99.90
22787;DHT22;63134;52.020;4.714;2024-01-15T07:32:11;2.60;99.90
22787;DHT22;63134;52.020;4.714;2024-01-15T07:34:57;2.50;99.90
22787;DHT22;63134;52.020;4.714;2024-01-15T07:37:42;2.50;99.90
22787;DHT22;63134;52.020;4.714;2024-01-15T07:40:28;2.60;99.90
22787;DHT22;63134;52.020;4.714;2024-01-15T07:43:15;2.60;99.90
22787;DHT22;63134;52.020;4.714;2024-01-15T07:46:01;2.70;99.90
22787;DHT22;63134;52.020;4.714;2024-01-15T07:48:48;2.70;99.90
22787;DHT22;63134;52.020;4.714;2024-01-15T07:51:33;2.80;99.90
22787;DHT22;63134;52.020;4.714;2024-01-15T07:54:19;2.80;99.90
22787;DHT22;63134;52.020;4.714;2024-01-15T07:57:05;2.90;99.90
22787;DHT22;63134;52.020;4.714;2024-01-15T07:59:50;2.90;99.90
22787;DHT22;63134;52.020;4.714;2024-01-15T08:02:36;2.90;99.90
22787;DHT22;63134;52.020;4.714;2024-01-15T08:05:22;3.00;99.90
22787;DHT22;63134;52.020;4.714;2024-01-15T08:08:08;3.00;99.90
22787;DHT22;63134;52.020;4.714;2024-01-15T08:10:54;3.00;99.90
22787;DHT22;63134;52.020;4.714;2024-01-15T08:13:40;3.10;99.90
22787;DHT22;63134;52.020;4.714;2024-01-15T08:16:25;3.20;99.90
22787;DHT22;63134;52.020;4.714;2024-01-15T08:19:12;3.20;99.90
22787;DHT22;63134;52.020;4.714;2024-01-15T08:21:58;3.20;99.90
22787;DHT22;63134;52.020;4.714;2024-01-15T08:24:44;3.30;99.90
22787;DHT22;63134;52.020;4.714;2024-01-15T08:27:30;3.10;99.90
22787;DHT22;63134;52.020;4.714;2024-01-15T08:30:16;3.10;99.90
22787;DHT22;63134;52.020;4.714;2024-01-15T08:33:01;3.10;99.90
22787;DHT22;63134;52.020;4.714;2024-01-15T08:35:55;3.20;99.90
22787;DHT22;63134;52.020;4.714;2024-01-15T08:38:41;3.20;99.90
22787;DHT22;63134;52.020;4.714;2024-01-15T08:41:26;3.30;99.90
22787;DHT22;63134;52.020;4.714;2024-01-15T08:44:12;3.40;99.90
22787;DHT22;63134;52.020;4.714;2024-01-15T08:46:57;3.50;99.90
22787;DHT22;63134;52.020;4.714;2024-01-15T08:49:43;3.60;99.90
22787;DHT22;63134;52.020;4.714;2024-01-15T08:52:30;3.70;99.90
22787;DHT22;63134;52.020;4.714;2024-01-15T08:55:16;3.90;99.90
22787;DHT22;63134;52.020;4.714;2024-01-15T08:58:01;4.30;99.90
22787;DHT22;63134;52.020;4.714;2024-01-15T09:00:47;4.60;99.90
22787;DHT22;63134;52.020;4.714;2024-01-15T09:03:32;4.80;99.90
22787;DHT22;63134;52.020;4.714;2024-01-15T09:06:19;4.90;99.90
22787;DHT22;63134;52.020;4.714;2024-01-15T09:09:05;4.80;99.30
22787;DHT22;63134;52.020;4.714;2024-01-15T09:11:51;4.70;98.60
22787;DHT22;63134;52.020;4.714;2024-01-15T09:14:37;4.40;97.10
22787;DHT22;63134;52.020;4.714;2024-01-15T09:17:22;4.00;97.40
22787;DHT22;63134;52.020;4.714;2024-01-15T09:20:13;3.70;98.40
22787;DHT22;63134;52.020;4.714;2024-01-15T09:22:58;3.60;99.50
22787;DHT22;63134;52.020;4.714;2024-01-15T09:25:44;3.50;99.90
22787;DHT22;63134;52.020;4.714;2024-01-15T09:28:29;3.40;99.90
22787;DHT22;63134;52.020;4.714;2024-01-15T09:31:15;3.30;99.90
22787;DHT22;63134;52.020;4.714;2024-01-15T09:34:02;3.30;99.90
22787;DHT22;63134;52.020;4.714;2024-01-15T09:36:48;3.40;99.90
22787;DHT22;63134;52.020;4.714;2024-01-15T09:39:34;3.40;99.90
22787;DHT22;63134;52.020;4.714;2024-01-15T09:42:20;3.40;99.90
22787;DHT22;63134;52.020;4.714;2024-01-15T09:45:07;3.50;99.90
22787;DHT22;63134;52.020;4.714;2024-01-15T09:47:54;3.60;99.90
22787;DHT22;63134;52.020;4.714;2024-01-15T09:50:39;3.80;99.90
22787;DHT22;63134;52.020;4.714;2024-01-15T09:53:25;3.90;99.90
22787;DHT22;63134;52.020;4.714;2024-01-15T09:56:11;4.00;99.90
22787;DHT22;63134;52.020;4.714;2024-01-15T09:58:57;4.20;99.90
22787;DHT22;63134;52.020;4.714;2024-01-15T10:01:47;4.40;99.90
22787;DHT22;63134;52.020;4.714;2024-01-15T10:04:35;4.60;99.90
22787;DHT22;63134;52.020;4.714;2024-01-15T10:07:21;4.50;99.90
22787;DHT22;63134;52.020;4.714;2024-01-15T10:10:10;4.40;99.90
22787;DHT22;63134;52.020;4.714;2024-01-15T10:12:59;4.30;99.90
22787;DHT22;63134;52.020;4.714;2024-01-15T10:15:46;4.30;99.90
22787;DHT22;63134;52.020;4.714;2024-01-15T10:18:32;4.40;99.90
22787;DHT22;63134;52.020;4.714;2024-01-15T10:21:18;4.50;99.90
22787;DHT22;63134;52.020;4.714;2024-01-15T10:24:04;4.50;99.90
22787;DHT22;63134;52.020;4.714;2024-01-15T10:26:50;4.60;99.90
22787;DHT22;63134;52.020;4.714;2024-01-15T10:29:36;4.60;99.90
22787;DHT22;63134;52.020;4.714;2024-01-15T10:32:21;4.50;99.80
22787;DHT22;63134;52.020;4.714;2024-01-15T10:35:09;4.50;99.90
22787;DHT22;63134;52.020;4.714;2024-01-15T10:37:55;4.60;99.90
22787;DHT22;63134;52.020;4.714;2024-01-15T10:40:41;4.70;99.90
22787;DHT22;63134;52.020;4.714;2024-01-15T10:43:29;4.80;98.40
22787;DHT22;63134;52.020;4.714;2024-01-15T10:46:15;4.70;97.90
22787;DHT22;63134;52.020;4.714;2024-01-15T10:49:00;4.60;98.50
22787;DHT22;63134;52.020;4.714;2024-01-15T10:51:47;4.50;98.60
22787;DHT22;63134;52.020;4.714;2024-01-15T10:54:34;4.40;98.40
22787;DHT22;63134;52.020;4.714;2024-01-15T10:57:21;4.30;98.70
22787;DHT22;63134;52.020;4.714;2024-01-15T11:00:08;4.70;99.90
22787;DHT22;63134;52.020;4.714;2024-01-15T11:02:54;5.00;99.90
22787;DHT22;63134;52.020;4.714;2024-01-15T11:05:44;5.10;99.40
22787;DHT22;63134;52.020;4.714;2024-01-15T11:08:30;5.20;99.70
22787;DHT22;63134;52.020;4.714;2024-01-15T11:11:17;5.30;99.60
22787;DHT22;63134;52.020;4.714;2024-01-15T11:14:03;5.20;98.20
22787;DHT22;63134;52.020;4.714;2024-01-15T11:16:57;5.20;98.80
22787;DHT22;63134;52.020;4.714;2024-01-15T11:19:48;5.30;98.40
22787;DHT22;63134;52.020;4.714;2024-01-15T11:22:48;5.40;98.40
22787;DHT22;63134;52.020;4.714;2024-01-15T11:25:38;5.50;98.90
22787;DHT22;63134;52.020;4.714;2024-01-15T11:28:47;5.80;99.40
22787;DHT22;63134;52.020;4.714;2024-01-15T11:40:38;6.50;94.10
22787;DHT22;63134;52.020;4.714;2024-01-15T11:43:24;5.80;94.20
22787;DHT22;63134;52.020;4.714;2024-01-15T11:46:13;5.40;95.50
22787;DHT22;63134;52.020;4.714;2024-01-15T11:49:06;5.20;96.10
22787;DHT22;63134;52.020;4.714;2024-01-15T11:51:55;5.10;96.70
22787;DHT22;63134;52.020;4.714;2024-01-15T11:54:48;5.00;96.90
22787;DHT22;63134;52.020;4.714;2024-01-15T11:57:50;4.90;97.00
22787;DHT22;63134;52.020;4.714;2024-01-15T12:00:43;4.90;97.60
22787;DHT22;63134;52.020;4.714;2024-01-15T12:03:32;4.90;97.70
22787;DHT22;63134;52.020;4.714;2024-01-15T12:06:18;5.00;97.60
22787;DHT22;63134;52.020;4.714;2024-01-15T12:09:07;4.90;97.60
22787;DHT22;63134;52.020;4.714;2024-01-15T12:12:00;4.80;97.60
22787;DHT22;63134;52.020;4.714;2024-01-15T12:14:51;4.70;97.90
22787;DHT22;63134;52.020;4.714;2024-01-15T12:17:37;4.60;98.30
22787;DHT22;63134;52.020;4.714;2024-01-15T12:20:27;4.60;97.90
22787;DHT22;63134;52.020;4.714;2024-01-15T12:23:12;4.80;98.60
22787;DHT22;63134;52.020;4.714;2024-01-15T12:25:58;5.60;99.70
22787;DHT22;63134;52.020;4.714;2024-01-15T12:28:44;6.20;99.20
22787;DHT22;63134;52.020;4.714;2024-01-15T12:31:30;7.50;99.90
22787;DHT22;63134;52.020;4.714;2024-01-15T12:34:17;7.90;95.80
22787;DHT22;63134;52.020;4.714;2024-01-15T12:37:03;7.20;93.70
22787;DHT22;63134;52.020;4.714;2024-01-15T12:39:49;6.50;93.10
22787;DHT22;63134;52.020;4.714;2024-01-15T12:42:35;6.00;93.60
22787;DHT22;63134;52.020;4.714;2024-01-15T12:45:21;5.80;94.60
22787;DHT22;63134;52.020;4.714;2024-01-15T12:48:06;5.70;95.20
22787;DHT22;63134;52.020;4.714;2024-01-15T12:50:52;5.50;94.80
22787;DHT22;63134;52.020;4.714;2024-01-15T12:53:38;5.20;95.00
22787;DHT22;63134;52.020;4.714;2024-01-15T12:56:24;6.20;98.80
22787;DHT22;63134;52.020;4.714;2024-01-15T12:59:10;7.20;98.30
22787;DHT22;63134;52.020;4.714;2024-01-15T13:01:55;8.00;96.90
22787;DHT22;63134;52.020;4.714;2024-01-15T13:04:41;8.70;96.40
22787;DHT22;63134;52.020;4.714;2024-01-15T13:07:27;9.40;95.20
22787;DHT22;63134;52.020;4.714;2024-01-15T13:10:13;10.10;93.10
22787;DHT22;63134;52.020;4.714;2024-01-15T13:12:58;10.70;91.40
22787;DHT22;63134;52.020;4.714;2024-01-15T13:15:43;11.40;90.50
22787;DHT22;63134;52.020;4.714;2024-01-15T13:18:29;12.00;89.20
22787;DHT22;63134;52.020;4.714;2024-01-15T13:21:16;12.20;82.10
22787;DHT22;63134;52.020;4.714;2024-01-15T13:24:02;11.10;76.90
22787;DHT22;63134;52.020;4.714;2024-01-15T13:26:48;9.90;74.60
22787;DHT22;63134;52.020;4.714;2024-01-15T13:29:34;8.90;76.10
22787;DHT22;63134;52.020;4.714;2024-01-15T13:32:24;8.10;78.70
22787;DHT22;63134;52.020;4.714;2024-01-15T13:35:11;7.40;80.50
22787;DHT22;63134;52.020;4.714;2024-01-15T13:37:58;6.90;81.40
22787;DHT22;63134;52.020;4.714;2024-01-15T13:40:44;6.60;82.00
22787;DHT22;63134;52.020;4.714;2024-01-15T13:43:34;6.30;82.30
22787;DHT22;63134;52.020;4.714;2024-01-15T13:46:22;6.00;84.30
22787;DHT22;63134;52.020;4.714;2024-01-15T13:49:08;5.80;84.40
22787;DHT22;63134;52.020;4.714;2024-01-15T13:51:57;5.70;85.50
22787;DHT22;63134;52.020;4.714;2024-01-15T13:54:42;5.60;85.80
22787;DHT22;63134;52.020;4.714;2024-01-15T13:57:35;5.50;85.20
22787;DHT22;63134;52.020;4.714;2024-01-15T14:00:21;5.50;85.90
22787;DHT22;63134;52.020;4.714;2024-01-15T14:03:09;5.40;86.30
22787;DHT22;63134;52.020;4.714;2024-01-15T14:05:55;5.40;86.10
22787;DHT22;63134;52.020;4.714;2024-01-15T14:08:40;5.40;86.00
22787;DHT22;63134;52.020;4.714;2024-01-15T14:11:26;5.00;85.20
22787;DHT22;63134;52.020;4.714;2024-01-15T14:14:14;5.00;87.50
22787;DHT22;63134;52.020;4.714;2024-01-15T14:17:02;5.40;89.90
22787;DHT22;63134;52.020;4.714;2024-01-15T14:19:47;6.70;92.10
22787;DHT22;63134;52.020;4.714;2024-01-15T14:22:33;7.40;90.80
22787;DHT22;63134;52.020;4.714;2024-01-15T14:25:18;8.10;90.40
22787;DHT22;63134;52.020;4.714;2024-01-15T14:28:04;9.00;89.30
22787;DHT22;63134;52.020;4.714;2024-01-15T14:30:49;9.70;87.80
22787;DHT22;63134;52.020;4.714;2024-01-15T14:33:35;10.20;82.70
22787;DHT22;63134;52.020;4.714;2024-01-15T14:36:25;10.40;75.90
22787;DHT22;63134;52.020;4.714;2024-01-15T14:39:10;10.20;72.00
22787;DHT22;63134;52.020;4.714;2024-01-15T14:41:56;9.90;70.20
22787;DHT22;63134;52.020;4.714;2024-01-15T14:44:42;9.60;70.20
22787;DHT22;63134;52.020;4.714;2024-01-15T14:47:27;9.40;69.30
22787;DHT22;63134;52.020;4.714;2024-01-15T14:50:13;9.60;71.40
22787;DHT22;63134;52.020;4.714;2024-01-15T14:52:58;10.00;71.70
22787;DHT22;63134;52.020;4.714;2024-01-15T14:55:44;10.50;69.80
22787;DHT22;63134;52.020;4.714;2024-01-15T14:58:29;10.80;66.40
22787;DHT22;63134;52.020;4.714;2024-01-15T15:01:16;10.80;63.40
22787;DHT22;63134;52.020;4.714;2024-01-15T15:04:02;10.00;59.90
22787;DHT22;63134;52.020;4.714;2024-01-15T15:06:48;8.70;62.80
22787;DHT22;63134;52.020;4.714;2024-01-15T15:09:33;7.70;65.50
22787;DHT22;63134;52.020;4.714;2024-01-15T15:12:19;7.10;67.90
22787;DHT22;63134;52.020;4.714;2024-01-15T15:15:05;6.60;69.90
22787;DHT22;63134;52.020;4.714;2024-01-15T15:17:57;6.20;71.80
22787;DHT22;63134;52.020;4.714;2024-01-15T15:20:45;5.90;73.50
22787;DHT22;63134;52.020;4.714;2024-01-15T15:23:31;5.70;75.00
22787;DHT22;63134;52.020;4.714;2024-01-15T15:26:17;5.60;76.20
22787;DHT22;63134;52.020;4.714;2024-01-15T15:29:03;5.60;77.10
22787;DHT22;63134;52.020;4.714;2024-01-15T15:31:48;5.70;77.70
22787;DHT22;63134;52.020;4.714;2024-01-15T15:34:34;5.60;78.00
22787;DHT22;63134;52.020;4.714;2024-01-15T15:37:20;5.50;78.70
22787;DHT22;63134;52.020;4.714;2024-01-15T15:40:06;5.20;79.60
22787;DHT22;63134;52.020;4.714;2024-01-15T15:42:54;5.00;80.90
22787;DHT22;63134;52.020;4.714;2024-01-15T15:45:40;5.00;82.10
22787;DHT22;63134;52.020;4.714;2024-01-15T15:48:25;5.00;82.10
22787;DHT22;63134;52.020;4.714;2024-01-15T15:51:11;5.00;82.00
22787;DHT22;63134;52.020;4.714;2024-01-15T15:53:57;4.90;82.30
22787;DHT22;63134;52.020;4.714;2024-01-15T15:56:42;4.60;83.60
22787;DHT22;63134;52.020;4.714;2024-01-15T15:59:32;4.50;85.90
22787;DHT22;63134;52.020;4.714;2024-01-15T16:02:18;4.40;87.20
22787;DHT22;63134;52.020;4.714;2024-01-15T16:05:04;4.30;88.60
22787;DHT22;63134;52.020;4.714;2024-01-15T16:07:57;4.20;90.00
22787;DHT22;63134;52.020;4.714;2024-01-15T16:10:43;4.10;90.40
22787;DHT22;63134;52.020;4.714;2024-01-15T16:13:29;4.00;90.60
22787;DHT22;63134;52.020;4.714;2024-01-15T16:16:15;3.80;91.00
22787;DHT22;63134;52.020;4.714;2024-01-15T16:19:20;3.80;91.30
22787;DHT22;63134;52.020;4.714;2024-01-15T16:22:26;3.70;91.50
22787;DHT22;63134;52.020;4.714;2024-01-15T16:25:31;3.60;91.80
22787;DHT22;63134;52.020;4.714;2024-01-15T16:28:17;3.60;91.90
22787;DHT22;63134;52.020;4.714;2024-01-15T16:31:03;3.50;92.40
22787;DHT22;63134;52.020;4.714;2024-01-15T16:33:53;3.50;92.20
22787;DHT22;63134;52.020;4.714;2024-01-15T16:36:46;3.60;92.30
22787;DHT22;63134;52.020;4.714;2024-01-15T16:39:31;3.60;92.30
22787;DHT22;63134;52.020;4.714;2024-01-15T16:42:17;3.60;92.10
22787;DHT22;63134;52.020;4.714;2024-01-15T16:45:03;3.50;92.30
22787;DHT22;63134;52.020;4.714;2024-01-15T16:47:48;3.60;92.40
22787;DHT22;63134;52.020;4.714;2024-01-15T16:50:34;3.60;92.60
22787;DHT22;63134;52.020;4.714;2024-01-15T16:53:20;3.80;93.00
22787;DHT22;63134;52.020;4.714;2024-01-15T16:56:06;3.90;92.90
22787;DHT22;63134;52.020;4.714;2024-01-15T16:58:52;4.10;92.30
22787;DHT22;63134;52.020;4.714;2024-01-15T17:01:38;4.10;92.50
22787;DHT22;63134;52.020;4.714;2024-01-15T17:04:24;4.20;92.50
22787;DHT22;63134;52.020;4.714;2024-01-15T17:07:09;4.30;92.50
22787;DHT22;63134;52.020;4.714;2024-01-15T17:09:55;4.30;92.30
22787;DHT22;63134;52.020;4.714;2024-01-15T17:12:41;4.20;91.70
22787;DHT22;63134;52.020;4.714;2024-01-15T17:15:26;4.10;91.70
22787;DHT22;63134;52.020;4.714;2024-01-15T17:18:12;3.90;92.00
22787;DHT22;63134;52.020;4.714;2024-01-15T17:20:58;3.80;92.70
22787;DHT22;63134;52.020;4.714;2024-01-15T17:23:43;3.70;92.80
22787;DHT22;63134;52.020;4.714;2024-01-15T17:26:29;3.60;93.20
22787;DHT22;63134;52.020;4.714;2024-01-15T17:29:15;3.50;93.20
22787;DHT22;63134;52.020;4.714;2024-01-15T17:32:00;3.20;93.10
22787;DHT22;63134;52.020;4.714;2024-01-15T17:34:46;3.10;93.40
22787;DHT22;63134;52.020;4.714;2024-01-15T17:37:33;2.90;93.80
22787;DHT22;63134;52.020;4.714;2024-01-15T17:40:18;2.80;94.20
22787;DHT22;63134;52.020;4.714;2024-01-15T17:43:03;2.70;94.40
22787;DHT22;63134;52.020;4.714;2024-01-15T17:45:49;2.60;94.70
22787;DHT22;63134;52.020;4.714;2024-01-15T17:48:35;2.60;95.00
22787;DHT22;63134;52.020;4.714;2024-01-15T17:51:21;2.60;95.20
22787;DHT22;63134;52.020;4.714;2024-01-15T17:54:06;2.60;95.40
22787;DHT22;63134;52.020;4.714;2024-01-15T17:56:54;2.60;95.80